Time;durP1;ratioP1;P1;durP2;ratioP2;P2;SDS_P1;SDS_P2;PMS_P1;PMS_P2;Temp;Humidity;BMP_temperature;BMP_pressure;BME280_temperature;BME280_humidity;BME280_pressure;Samples;Min_cycle;Max_cycle;Signal;HPM_P1;HPM_P2
2023/02/01 00:02:08;;;;;;;8.30;4.35;;;5.10;82.40;;;;;;4980929;28;93765;-72
2023/02/01 00:04:34;;;;;;;11.25;4.82;;;5.10;82.50;;;;;;4995582;28;92084;-72
2023/02/01 00:07:00;;;;;;;10.52;4.45;;;5.10;82.50;;;;;;4977396;28;92327;-73
2023/02/01 00:09:26;;;;;;;12.07;5.03;;;5.10;82.30;;;;;;4970707;28;93435;-72
2023/02/01 00:11:52;;;;;;;10.32;4.85;;;5.10;82.60;;;;;;4974497;28;92883;-71
2023/02/01 00:14:18;;;;;;;10.82;5.10;;;5.00;82.80;;;;;;4975713;28;92327;-73
2023/02/01 00:16:43;;;;;;;9.98;4.57;;;5.00;83.30;;;;;;4975402;28;91472;-73
2023/02/01 00:19:15;;;;;;;11.35;4.90;;;5.00;83.40;;;;;;4975338;28;93098;-73
2023/02/01 00:21:41;;;;;;;11.48;4.40;;;5.00;83.40;;;;;;4973413;28;93471;-73
2023/02/01 00:24:07;;;;;;;12.48;5.47;;;5.00;83.60;;;;;;4993141;28;94675;-73
2023/02/01 00:26:34;;;;;;;13.32;5.75;;;4.90;83.90;;;;;;4995581;28;92479;-72
2023/02/01 00:29:01;;;;;;;14.48;5.88;;;5.00;84.20;;;;;;4971867;28;93702;-71
2023/02/01 00:31:27;;;;;;;15.73;6.05;;;4.90;84.30;;;;;;4988112;28;93193;-70
2023/02/01 00:33:53;;;;;;;13.20;5.70;;;5.00;84.10;;;;;;4969402;28;94218;-72
2023/02/01 00:36:18;;;;;;;13.48;5.43;;;5.00;83.20;;;;;;4975009;28;92434;-73
2023/02/01 00:38:44;;;;;;;12.20;5.97;;;5.00;83.90;;;;;;4974756;28;93819;-73
2023/02/01 00:41:16;;;;;;;15.10;6.07;;;4.90;84.00;;;;;;4974852;28;92870;-73
2023/02/01 00:43:43;;;;;;;13.93;6.15;;;4.90;84.40;;;;;;4974176;28;93914;-73
2023/02/01 00:46:09;;;;;;;12.27;6.03;;;4.90;84.60;;;;;;4966232;28;92470;-72
2023/02/01 00:48:36;;;;;;;14.63;6.32;;;4.90;85.10;;;;;;4968624;28;93603;-73
2023/02/01 00:51:05;;;;;;;13.75;6.35;;;4.90;84.50;;;;;;4976619;28;93667;-73
2023/02/01 00:53:31;;;;;;;15.02;6.80;;;4.90;84.50;;;;;;4974472;28;92332;-73
2023/02/01 00:55:57;;;;;;;14.55;6.03;;;5.00;84.40;;;;;;4972561;28;92670;-72
2023/02/01 00:58:26;;;;;;;15.70;6.22;;;5.00;84.10;;;;;;4983490;28;93161;-73
2023/02/01 01:01:06;;;;;;;14.05;6.55;;;5.00;84.30;;;;;;4992570;28;92589;-73
2023/02/01 01:03:35;;;;;;;12.55;5.47;;;5.00;84.40;;;;;;4973126;28;92550;-74
2023/02/01 01:06:03;;;;;;;13.30;5.88;;;4.90;83.70;;;;;;4971530;28;91873;-71
2023/02/01 01:08:32;;;;;;;14.88;5.38;;;5.00;83.50;;;;;;4970761;28;93250;-72
2023/02/01 01:10:58;;;;;;;14.50;5.50;;;4.90;83.00;;;;;;4983717;28;92669;-73
2023/02/01 01:13:24;;;;;;;15.55;5.45;;;4.90;83.60;;;;;;4992139;28;93380;-72
2023/02/01 01:15:50;;;;;;;14.23;5.40;;;4.90;83.40;;;;;;4993016;28;92386;-70
2023/02/01 01:18:15;;;;;;;11.88;5.00;;;4.90;83.20;;;;;;4973661;28;93070;-70
2023/02/01 01:20:41;;;;;;;13.18;5.72;;;4.90;82.80;;;;;;4968197;28;93319;-73
2023/02/01 01:23:08;;;;;;;10.98;5.10;;;4.90;83.10;;;;;;4974468;28;92365;-73
2023/02/01 01:25:38;;;;;;;11.93;5.10;;;4.80;83.10;;;;;;4976981;28;92413;-72
2023/02/01 01:28:04;;;;;;;12.48;5.05;;;4.90;83.00;;;;;;4984051;28;92548;-72
2023/02/01 01:30:30;;;;;;;13.68;5.68;;;4.90;82.30;;;;;;4972140;28;92356;-73
2023/02/01 01:32:56;;;;;;;9.85;4.18;;;5.00;82.20;;;;;;4981655;28;92507;-73
2023/02/01 01:35:21;;;;;;;8.88;4.07;;;5.10;81.20;;;;;;4997837;28;93181;-75
2023/02/01 01:37:47;;;;;;;9.75;4.25;;;5.10;80.10;;;;;;4976435;28;94490;-71
2023/02/01 01:40:13;;;;;;;9.48;3.90;;;5.20;80.70;;;;;;4983469;28;93156;-73
2023/02/01 01:42:41;;;;;;;11.25;4.38;;;5.20;79.20;;;;;;4977756;28;92966;-73
2023/02/01 01:45:35;;;;;;;8.18;4.18;;;5.30;79.40;;;;;;4976873;28;92601;-73
2023/02/01 01:48:08;;;;;;;10.10;4.03;;;5.30;79.70;;;;;;4976897;28;93481;-71
2023/02/01 01:50:44;;;;;;;10.93;4.75;;;5.30;79.90;;;;;;4981971;28;94298;-75
2023/02/01 01:53:13;;;;;;;8.70;4.10;;;5.30;80.30;;;;;;4983347;28;92561;-74
2023/02/01 01:55:42;;;;;;;10.75;4.65;;;5.20;80.60;;;;;;4982423;28;91690;-72
2023/02/01 01:58:15;;;;;;;8.60;3.97;;;5.30;80.90;;;;;;4972768;28;93454;-74
2023/02/01 02:00:42;;;;;;;10.52;4.57;;;5.30;80.50;;;;;;4976680;28;92872;-73
2023/02/01 02:03:12;;;;;;;10.57;4.30;;;5.30;80.50;;;;;;4975340;28;93478;-72
2023/02/01 02:05:38;;;;;;;10.27;3.88;;;5.30;80.10;;;;;;4978737;28;92391;-74
2023/02/01 02:08:04;;;;;;;10.32;4.25;;;5.30;80.30;;;;;;4976267;28;92757;-72
2023/02/01 02:13:17;;;;;;;10.23;4.10;;;5.30;80.40;;;;;;4976060;28;92607;-72
2023/02/01 02:16:03;;;;;;;8.95;4.13;;;5.20;80.20;;;;;;4976079;28;92292;-73
2023/02/01 02:18:44;;;;;;;9.02;3.88;;;5.20;80.30;;;;;;4978517;28;94191;-74
2023/02/01 02:21:23;;;;;;;11.40;4.53;;;5.20;80.20;;;;;;4974678;28;93496;-74
2023/02/01 02:24:07;;;;;;;7.75;3.78;;;5.20;80.10;;;;;;4976414;28;92557;-74
2023/02/01 02:26:53;;;;;;;7.72;3.85;;;5.20;80.40;;;;;;4984922;28;92357;-71
2023/02/01 02:29:56;;;;;;;8.70;3.60;;;5.20;80.00;;;;;;4978006;28;94139;-73
2023/02/01 02:32:34;;;;;;;10.23;4.28;;;5.20;80.40;;;;;;4979741;28;92757;-71
2023/02/01 02:35:13;;;;;;;10.85;3.88;;;5.10;80.80;;;;;;4970178;28;93025;-72
2023/02/01 02:37:47;;;;;;;9.32;3.50;;;5.10;80.00;;;;;;4976971;28;92335;-73
2023/02/01 02:40:12;;;;;;;9.30;3.95;;;5.00;80.30;;;;;;4975031;28;93248;-73
2023/02/01 02:48:54;;;;;;;7.13;3.30;;;4.90;80.70;;;;;;4971550;28;93318;-73
2023/02/01 02:54:50;;;;;;;7.53;2.83;;;4.80;78.00;;;;;;4986021;28;92502;-72
2023/02/01 03:05:51;;;;;;;7.65;2.72;;;4.90;76.80;;;;;;4975729;28;92599;-73
2023/02/01 03:08:26;;;;;;;9.10;3.13;;;4.90;77.30;;;;;;4987857;28;91974;-73
2023/02/01 03:10:52;;;;;;;8.48;3.22;;;4.90;77.00;;;;;;4985943;28;92370;-73
2023/02/01 03:13:23;;;;;;;5.95;2.88;;;4.90;77.20;;;;;;4995662;28;93154;-74
2023/02/01 03:16:06;;;;;;;6.88;2.67;;;4.90;77.80;;;;;;4992473;28;91793;-73
2023/02/01 03:18:57;;;;;;;9.75;3.90;;;4.80;77.80;;;;;;4970336;28;93797;-71
2023/02/01 03:21:55;;;;;;;6.80;2.80;;;4.80;78.40;;;;;;4976333;28;92106;-71
2023/02/01 03:24:32;;;;;;;8.55;3.72;;;4.80;77.90;;;;;;4988732;28;94165;-73
2023/02/01 03:27:05;;;;;;;8.95;3.40;;;4.80;78.20;;;;;;4973455;28;93898;-71
2023/02/01 03:29:41;;;;;;;7.45;3.10;;;4.80;78.00;;;;;;4976611;28;92177;-71
2023/02/01 03:32:09;;;;;;;7.97;3.70;;;4.70;78.40;;;;;;4976102;28;92424;-72
2023/02/01 03:34:35;;;;;;;10.80;3.63;;;4.70;78.50;;;;;;4974253;28;93109;-72
2023/02/01 03:37:05;;;;;;;8.38;3.00;;;4.70;78.60;;;;;;4984406;28;92357;-71
2023/02/01 03:39:31;;;;;;;8.70;3.67;;;4.70;78.90;;;;;;4980878;28;92320;-71
2023/02/01 03:42:01;;;;;;;9.77;3.63;;;4.70;78.60;;;;;;4974247;28;91840;-73
2023/02/01 03:44:34;;;;;;;8.38;3.67;;;4.70;78.30;;;;;;4973340;28;92568;-73
2023/02/01 03:47:09;;;;;;;6.88;2.95;;;4.70;78.20;;;;;;4969027;28;93001;-73
2023/02/01 03:49:49;;;;;;;7.25;2.95;;;4.60;78.20;;;;;;4973417;28;93618;-73
2023/02/01 03:52:56;;;;;;;8.23;3.00;;;4.70;78.30;;;;;;4970483;28;92763;-71
2023/02/01 03:55:23;;;;;;;5.80;2.60;;;4.70;77.70;;;;;;4966573;28;92538;-73
2023/02/01 03:58:06;;;;;;;10.27;2.80;;;4.70;77.20;;;;;;4969618;28;92799;-71
2023/02/01 04:00:32;;;;;;;6.25;2.83;;;4.70;76.70;;;;;;4982546;28;92442;-71
2023/02/01 04:02:58;;;;;;;6.70;2.67;;;4.70;76.80;;;;;;4995732;28;92752;-73
2023/02/01 04:05:24;;;;;;;6.70;2.70;;;4.70;76.40;;;;;;4994972;28;92673;-71
2023/02/01 04:07:49;;;;;;;6.80;2.47;;;4.70;76.90;;;;;;4987375;28;92247;-71
2023/02/01 04:10:16;;;;;;;7.20;3.00;;;4.80;76.70;;;;;;4974422;28;92457;-73
2023/02/01 04:12:42;;;;;;;7.57;3.08;;;4.80;76.30;;;;;;4974145;28;92517;-74
2023/02/01 04:15:08;;;;;;;12.75;2.75;;;4.80;75.90;;;;;;4974421;28;94145;-74
2023/02/01 04:17:34;;;;;;;5.68;2.63;;;4.80;76.00;;;;;;4973822;28;96405;-72
2023/02/01 04:20:00;;;;;;;7.43;2.63;;;4.90;75.80;;;;;;4992269;28;92492;-72
2023/02/01 04:22:25;;;;;;;8.07;3.05;;;4.90;75.80;;;;;;4967124;28;92547;-74
2023/02/01 04:24:51;;;;;;;5.05;2.38;;;5.00;76.00;;;;;;4977623;28;92667;-72
2023/02/01 04:27:17;;;;;;;5.97;2.35;;;5.10;75.80;;;;;;4967567;28;92531;-72
2023/02/01 04:29:44;;;;;;;7.35;3.00;;;5.10;75.40;;;;;;4972079;28;92374;-72
2023/02/01 04:32:10;;;;;;;6.40;2.72;;;5.10;75.70;;;;;;4974052;28;91670;-72
2023/02/01 04:34:36;;;;;;;7.85;2.83;;;5.00;76.10;;;;;;4976944;28;94070;-71
2023/02/01 04:37:02;;;;;;;7.03;2.95;;;5.00;76.70;;;;;;4983362;28;93236;-73
2023/02/01 04:39:28;;;;;;;6.07;2.53;;;5.00;76.50;;;;;;4975937;28;93464;-72
2023/02/01 04:41:54;;;;;;;13.43;2.88;;;5.00;76.50;;;;;;4981615;28;92318;-71
2023/02/01 04:44:20;;;;;;;11.60;2.60;;;4.90;76.20;;;;;;4959023;28;94406;-74
2023/02/01 04:46:46;;;;;;;7.50;2.75;;;5.00;75.20;;;;;;4962788;28;95273;-72
2023/02/01 04:49:13;;;;;;;5.65;1.90;;;5.00;74.40;;;;;;4963485;28;92393;-72
2023/02/01 04:51:40;;;;;;;5.10;1.98;;;5.10;73.80;;;;;;4968222;28;92541;-71
2023/02/01 04:54:06;;;;;;;5.05;1.70;;;5.20;73.10;;;;;;4976591;28;92929;-71
2023/02/01 04:56:32;;;;;;;7.68;1.77;;;5.20;72.40;;;;;;4969293;28;93390;-72
2023/02/01 04:58:58;;;;;;;4.80;1.60;;;5.20;71.90;;;;;;4967910;28;92531;-71
2023/02/01 05:01:24;;;;;;;5.50;1.50;;;5.20;71.60;;;;;;4966445;28;92483;-73
2023/02/01 05:03:56;;;;;;;4.95;1.77;;;5.30;72.70;;;;;;4965264;28;94394;-71
2023/02/01 05:06:22;;;;;;;5.25;2.25;;;5.30;73.00;;;;;;4985893;28;94292;-70
2023/02/01 05:08:47;;;;;;;5.82;1.75;;;5.40;73.10;;;;;;4993954;28;92571;-70
2023/02/01 05:13:59;;;;;;;7.20;1.30;;;5.40;72.10;;;;;;4974702;28;92397;-73
2023/02/01 05:16:25;;;;;;;4.90;1.70;;;5.40;71.20;;;;;;4966165;28;92802;-70
2023/02/01 05:18:50;;;;;;;12.93;2.28;;;5.50;71.80;;;;;;4965829;28;92669;-72
2023/02/01 05:21:16;;;;;;;5.88;1.48;;;5.50;71.50;;;;;;4972484;28;91811;-71
2023/02/01 05:26:26;;;;;;;4.68;1.40;;;5.50;70.40;;;;;;4988236;28;92575;-74
2023/02/01 05:28:52;;;;;;;9.40;2.05;;;5.40;70.20;;;;;;4984509;28;94995;-70
2023/02/01 05:31:17;;;;;;;4.30;1.42;;;5.30;71.00;;;;;;4968302;28;92565;-69
2023/02/01 05:33:43;;;;;;;9.27;1.98;;;5.30;71.10;;;;;;4966729;28;92717;-69
2023/02/01 05:36:09;;;;;;;6.50;1.58;;;5.30;71.50;;;;;;4973552;28;92781;-70
2023/02/01 05:38:34;;;;;;;19.17;3.78;;;5.20;72.30;;;;;;4976942;28;92942;-71
2023/02/01 05:41:00;;;;;;;7.03;2.00;;;5.10;72.20;;;;;;4966844;28;93133;-71
2023/02/01 05:43:26;;;;;;;8.27;2.33;;;5.00;72.30;;;;;;4970338;28;93032;-71
2023/02/01 05:45:52;;;;;;;5.18;1.88;;;4.90;72.80;;;;;;4996292;28;92831;-70
2023/02/01 05:48:18;;;;;;;6.18;2.13;;;4.80;73.00;;;;;;4958940;28;92491;-76
2023/02/01 05:50:44;;;;;;;4.97;1.70;;;4.60;73.50;;;;;;4968133;28;92812;-71
2023/02/01 05:53:10;;;;;;;11.13;2.25;;;4.60;73.50;;;;;;4975481;28;93535;-73
2023/02/01 05:55:37;;;;;;;6.95;2.10;;;4.50;73.90;;;;;;4976174;28;93734;-70
2023/02/01 05:58:03;;;;;;;8.20;2.00;;;4.40;74.80;;;;;;4972582;28;92616;-71
2023/02/01 06:00:28;;;;;;;6.10;1.90;;;4.40;74.60;;;;;;4962534;28;92627;-69
2023/02/01 06:02:54;;;;;;;8.35;1.80;;;4.40;74.50;;;;;;4961269;28;93794;-71
2023/02/01 06:05:20;;;;;;;4.82;1.80;;;4.40;74.80;;;;;;4961862;28;93921;-69
2023/02/01 06:07:46;;;;;;;5.82;2.00;;;4.30;74.30;;;;;;4969909;28;92484;-73
2023/02/01 06:10:12;;;;;;;7.45;2.03;;;4.20;74.70;;;;;;4965759;28;92900;-71
2023/02/01 06:12:38;;;;;;;7.38;2.22;;;4.20;74.80;;;;;;4962365;28;93324;-72
2023/02/01 06:15:05;;;;;;;5.60;2.33;;;4.30;75.00;;;;;;4963145;28;92423;-72
2023/02/01 06:17:30;;;;;;;7.10;2.05;;;4.30;74.50;;;;;;4972366;28;93497;-74
2023/02/01 06:19:56;;;;;;;6.53;1.95;;;4.30;75.10;;;;;;4970032;28;92429;-74
2023/02/01 06:22:22;;;;;;;6.60;2.42;;;4.40;74.60;;;;;;4967976;28;93746;-71
2023/02/01 06:24:48;;;;;;;6.47;2.30;;;4.50;74.10;;;;;;4964008;28;94407;-72
2023/02/01 06:27:14;;;;;;;7.85;2.13;;;4.60;74.10;;;;;;4962545;28;92686;-74
2023/02/01 06:29:40;;;;;;;8.57;2.13;;;4.70;73.60;;;;;;4968798;28;92146;-73
2023/02/01 06:32:06;;;;;;;5.35;1.98;;;4.80;74.20;;;;;;4973387;28;92760;-74
2023/02/01 06:34:32;;;;;;;5.72;2.17;;;4.90;73.20;;;;;;4972734;28;92964;-71
2023/02/01 06:36:58;;;;;;;5.00;2.05;;;4.90;72.70;;;;;;4970333;28;92535;-74
2023/02/01 06:39:24;;;;;;;5.97;2.15;;;4.90;72.70;;;;;;4969880;28;92365;-72
2023/02/01 06:41:50;;;;;;;6.70;1.98;;;4.90;72.80;;;;;;4970643;28;94915;-74
2023/02/01 06:44:16;;;;;;;10.73;3.80;;;4.80;73.10;;;;;;4970127;28;93747;-72
2023/02/01 06:46:43;;;;;;;10.32;2.90;;;4.80;73.30;;;;;;4974865;28;93354;-72
2023/02/01 06:49:08;;;;;;;5.13;2.00;;;4.90;73.10;;;;;;4971516;28;92358;-72
2023/02/01 06:51:34;;;;;;;5.88;2.08;;;4.90;73.10;;;;;;4967640;28;93017;-73
2023/02/01 06:54:00;;;;;;;5.32;1.77;;;4.90;73.10;;;;;;4968614;28;92779;-73
2023/02/01 06:56:26;;;;;;;7.88;2.25;;;5.00;73.30;;;;;;4975769;28;93404;-74
2023/02/01 06:58:52;;;;;;;7.72;2.17;;;5.00;72.70;;;;;;4966683;28;91529;-72
2023/02/01 07:01:20;;;;;;;5.60;1.95;;;4.90;72.90;;;;;;4963383;28;94115;-74
2023/02/01 07:03:50;;;;;;;4.93;1.73;;;5.00;72.70;;;;;;4965908;28;93498;-71
2023/02/01 07:06:17;;;;;;;9.30;2.60;;;5.10;72.30;;;;;;4967564;28;94625;-73
2023/02/01 07:08:43;;;;;;;4.30;1.42;;;5.10;72.10;;;;;;4970972;28;92260;-73
2023/02/01 07:11:12;;;;;;;4.65;1.60;;;5.10;72.60;;;;;;4961754;28;92332;-71
2023/02/01 07:13:38;;;;;;;5.18;2.28;;;5.10;71.90;;;;;;4964173;28;92841;-73
2023/02/01 07:16:07;;;;;;;4.32;1.38;;;5.10;71.90;;;;;;4966033;28;92599;-73
2023/02/01 07:18:33;;;;;;;9.57;1.80;;;5.20;71.70;;;;;;4964057;28;92665;-73
2023/02/01 07:20:59;;;;;;;8.98;2.13;;;5.20;74.10;;;;;;4963697;28;93585;-72
2023/02/01 07:23:38;;;;;;;9.57;1.77;;;5.20;72.30;;;;;;4963722;28;92490;-72
2023/02/01 07:26:06;;;;;;;3.92;1.42;;;5.30;72.10;;;;;;4969281;28;92524;-73
2023/02/01 07:28:34;;;;;;;3.92;1.10;;;5.40;71.70;;;;;;4973502;28;93197;-74
2023/02/01 07:31:09;;;;;;;4.20;1.63;;;5.40;71.20;;;;;;4962518;28;94226;-73
2023/02/01 07:33:35;;;;;;;7.45;1.65;;;5.40;71.70;;;;;;4966129;28;93301;-71
2023/02/01 07:36:02;;;;;;;5.55;1.60;;;5.50;71.90;;;;;;4975651;28;92443;-74
2023/02/01 07:38:28;;;;;;;6.05;1.95;;;5.60;71.50;;;;;;4971039;28;92933;-74
2023/02/01 07:40:59;;;;;;;5.50;1.85;;;5.70;70.80;;;;;;4975563;28;93628;-75
2023/02/01 07:43:25;;;;;;;6.82;1.50;;;5.70;70.40;;;;;;4974477;28;94049;-74
2023/02/01 07:45:52;;;;;;;11.77;3.50;;;5.70;69.50;;;;;;4969834;28;92507;-75
2023/02/01 07:48:18;;;;;;;17.58;4.40;;;5.60;70.40;;;;;;4960247;28;93286;-73
2023/02/01 07:50:43;;;;;;;34.17;8.38;;;5.60;70.20;;;;;;4960702;28;93518;-71
2023/02/01 07:53:09;;;;;;;5.63;1.55;;;5.60;70.40;;;;;;4958461;28;94650;-73
2023/02/01 07:55:37;;;;;;;5.53;1.02;;;5.50;70.00;;;;;;4960937;28;93812;-71
2023/02/01 07:58:03;;;;;;;3.00;1.15;;;5.50;69.90;;;;;;4960392;28;92418;-72
2023/02/01 08:03:13;;;;;;;5.72;1.40;;;5.30;70.70;;;;;;4951637;28;92552;-73
2023/02/01 08:05:39;;;;;;;5.03;1.83;;;5.20;70.50;;;;;;4957093;28;93025;-76
2023/02/01 08:08:05;;;;;;;5.93;2.60;;;5.20;70.90;;;;;;4959574;28;94226;-76
2023/02/01 08:10:31;;;;;;;6.07;1.38;;;5.30;70.70;;;;;;4956431;28;94062;-74
2023/02/01 08:13:00;;;;;;;4.45;1.38;;;5.30;70.70;;;;;;4958880;28;92219;-72
2023/02/01 08:15:27;;;;;;;5.22;1.40;;;5.30;71.50;;;;;;4957656;28;93048;-76
2023/02/01 08:17:58;;;;;;;4.30;1.30;;;5.40;71.20;;;;;;4966028;28;92711;-76
2023/02/01 08:20:25;;;;;;;6.15;2.05;;;5.40;70.80;;;;;;4956249;28;95473;-74
2023/02/01 08:22:51;;;;;;;5.85;1.83;;;5.50;70.90;;;;;;4964578;28;93468;-73
2023/02/01 08:25:17;;;;;;;6.18;1.55;;;5.50;70.50;;;;;;4956983;28;94242;-73
2023/02/01 08:27:43;;;;;;;5.35;1.35;;;5.50;70.30;;;;;;4966757;28;92721;-73
2023/02/01 08:30:10;;;;;;;5.28;1.90;;;5.60;70.00;;;;;;4964540;28;94962;-72
2023/02/01 08:32:36;;;;;;;7.03;1.80;;;5.50;70.00;;;;;;4962968;28;94336;-75
2023/02/01 08:35:02;;;;;;;4.55;1.23;;;5.50;70.60;;;;;;4955345;28;92946;-74
2023/02/01 08:37:28;;;;;;;3.53;1.25;;;5.60;70.70;;;;;;4961864;28;92261;-74
2023/02/01 08:39:54;;;;;;;5.68;1.35;;;5.70;70.70;;;;;;4963717;28;94188;-73
2023/02/01 08:45:07;;;;;;;5.78;1.48;;;5.70;70.40;;;;;;4964929;28;93961;-74
2023/02/01 08:47:33;;;;;;;5.13;1.38;;;5.70;70.80;;;;;;4972926;28;92664;-73
2023/02/01 08:49:59;;;;;;;5.72;1.55;;;5.80;70.60;;;;;;4973554;28;93129;-72
2023/02/01 08:52:25;;;;;;;4.50;1.58;;;5.80;71.10;;;;;;4966254;28;94069;-73
2023/02/01 08:54:50;;;;;;;4.88;1.60;;;5.90;71.60;;;;;;4967321;28;92641;-72
2023/02/01 08:57:16;;;;;;;4.25;1.48;;;5.90;71.10;;;;;;4966529;28;92520;-74
2023/02/01 08:59:44;;;;;;;5.13;1.20;;;5.90;70.80;;;;;;4966683;28;93902;-72
2023/02/01 09:02:13;;;;;;;4.97;1.48;;;6.00;71.60;;;;;;4963804;28;94769;-72
2023/02/01 09:04:39;;;;;;;6.70;2.00;;;6.10;71.10;;;;;;4962262;28;93586;-72
2023/02/01 09:07:05;;;;;;;13.25;5.30;;;6.20;70.70;;;;;;4972019;28;93866;-72
2023/02/01 09:09:34;;;;;;;6.20;2.60;;;6.20;70.70;;;;;;4969715;28;93563;-73
2023/02/01 09:12:09;;;;;;;4.45;1.50;;;6.30;70.50;;;;;;4966094;28;96199;-71
2023/02/01 09:14:35;;;;;;;8.10;4.57;;;6.50;70.20;;;;;;4966868;28;92692;-70
2023/02/01 09:17:01;;;;;;;6.78;2.00;;;6.60;70.70;;;;;;4967355;28;92952;-75
2023/02/01 09:19:27;;;;;;;4.63;1.02;;;6.60;70.90;;;;;;4970863;28;93536;-75
2023/02/01 09:21:52;;;;;;;6.25;2.63;;;6.70;71.00;;;;;;4967703;28;93496;-73
2023/02/01 09:24:18;;;;;;;4.78;1.98;;;6.80;70.00;;;;;;4973886;28;93068;-70
2023/02/01 09:26:44;;;;;;;4.15;1.40;;;6.80;69.90;;;;;;4969465;28;91790;-70
2023/02/01 09:29:10;;;;;;;4.35;0.90;;;6.90;70.10;;;;;;4961394;28;92684;-70
2023/02/01 09:31:36;;;;;;;3.60;0.73;;;6.90;71.10;;;;;;4962807;28;94481;-71
2023/02/01 09:34:02;;;;;;;3.97;0.52;;;7.00;71.10;;;;;;4958556;28;93657;-74
2023/02/01 09:36:28;;;;;;;3.53;0.50;;;7.20;70.60;;;;;;4964898;28;94967;-73
2023/02/01 09:38:54;;;;;;;1.88;0.40;;;7.30;70.40;;;;;;4959407;28;94548;-73
2023/02/01 09:41:57;;;;;;;2.53;0.70;;;7.40;70.70;;;;;;4963116;28;93101;-71
2023/02/01 09:44:52;;;;;;;4.82;0.88;;;7.40;70.60;;;;;;4959568;28;93376;-72
2023/02/01 09:47:21;;;;;;;5.22;0.60;;;7.50;70.40;;;;;;4957945;28;94601;-75
2023/02/01 09:50:20;;;;;;;1.88;0.63;;;7.60;69.90;;;;;;4963671;28;93035;-73
2023/02/01 09:53:00;;;;;;;2.47;0.80;;;7.70;69.30;;;;;;4967926;28;93433;-74
2023/02/01 09:55:42;;;;;;;2.22;0.50;;;7.60;69.80;;;;;;4959374;28;92565;-75
2023/02/01 09:58:21;;;;;;;5.00;0.75;;;7.60;69.60;;;;;;4958848;28;94164;-72
2023/02/01 10:00:56;;;;;;;2.88;0.60;;;7.70;70.20;;;;;;4956282;28;93715;-70
2023/02/01 10:03:29;;;;;;;2.28;0.63;;;7.70;69.70;;;;;;4958400;28;94356;-71
2023/02/01 10:06:21;;;;;;;2.00;0.50;;;7.60;69.60;;;;;;4962923;28;94409;-75
2023/02/01 10:09:11;;;;;;;3.35;0.50;;;7.60;69.80;;;;;;4961828;28;92568;-71
2023/02/01 10:11:49;;;;;;;4.65;1.60;;;7.70;70.10;;;;;;4964952;28;92650;-71
2023/02/01 10:14:52;;;;;;;12.48;2.10;;;7.70;68.60;;;;;;4961315;28;93862;-72
2023/02/01 10:17:32;;;;;;;17.13;2.35;;;7.50;68.20;;;;;;4964191;28;92900;-75
2023/02/01 10:20:28;;;;;;;27.30;4.72;;;7.40;68.60;;;;;;4966041;28;93172;-74
2023/02/01 10:23:09;;;;;;;18.95;3.05;;;7.30;69.00;;;;;;4957770;28;93185;-73
2023/02/01 10:25:54;;;;;;;20.23;3.00;;;7.20;69.60;;;;;;4965526;28;92529;-71
2023/02/01 10:28:22;;;;;;;25.77;3.30;;;7.10;69.10;;;;;;4956800;28;93380;-71
2023/02/01 10:30:49;;;;;;;9.38;2.38;;;6.90;70.20;;;;;;4961209;28;92638;-72
2023/02/01 10:33:24;;;;;;;14.20;2.53;;;6.70;70.40;;;;;;4964079;28;92679;-71
2023/02/01 10:36:19;;;;;;;7.40;1.90;;;6.60;71.00;;;;;;4961179;28;92642;-73
2023/02/01 10:38:45;;;;;;;10.15;1.70;;;6.60;70.80;;;;;;4955533;28;92922;-72
2023/02/01 10:41:13;;;;;;;12.13;2.13;;;6.50;70.90;;;;;;4959539;28;93265;-71
2023/02/01 10:43:39;;;;;;;11.50;3.30;;;6.60;71.10;;;;;;4954278;28;93799;-75
2023/02/01 10:46:07;;;;;;;8.98;2.42;;;6.60;71.20;;;;;;4964149;28;92864;-73
2023/02/01 10:48:33;;;;;;;11.90;2.00;;;6.70;70.80;;;;;;4956019;28;94024;-72
2023/02/01 10:51:05;;;;;;;6.10;1.95;;;6.80;70.20;;;;;;4960619;28;93086;-71
2023/02/01 10:54:00;;;;;;;11.07;3.03;;;6.90;70.70;;;;;;4953679;28;94674;-73
2023/02/01 10:56:28;;;;;;;11.30;4.22;;;7.00;70.60;;;;;;4961447;28;96269;-69
2023/02/01 10:59:04;;;;;;;8.75;2.08;;;7.20;70.20;;;;;;4959494;28;94033;-73
2023/02/01 11:01:47;;;;;;;11.15;2.30;;;7.30;69.20;;;;;;4969191;28;92471;-71
2023/02/01 11:04:16;;;;;;;7.00;2.30;;;7.30;68.80;;;;;;4957593;28;92774;-74
2023/02/01 11:06:44;;;;;;;6.47;1.77;;;7.30;69.70;;;;;;4965310;28;93989;-72
2023/02/01 11:09:12;;;;;;;7.03;1.67;;;7.40;68.80;;;;;;4966558;28;94346;-71
2023/02/01 11:11:47;;;;;;;9.60;2.92;;;7.50;69.20;;;;;;4960994;28;91504;-73
2023/02/01 11:14:30;;;;;;;8.27;2.47;;;7.80;68.90;;;;;;4961257;28;92850;-74
2023/02/01 11:17:02;;;;;;;6.03;2.00;;;8.00;68.10;;;;;;4963384;28;93078;-71
2023/02/01 11:19:28;;;;;;;5.72;1.48;;;8.20;67.90;;;;;;4956976;28;94996;-72
2023/02/01 11:21:59;;;;;;;7.40;1.45;;;8.40;67.10;;;;;;4962876;28;93680;-72
2023/02/01 11:24:37;;;;;;;5.50;1.63;;;8.50;66.90;;;;;;4957864;28;93626;-72
2023/02/01 11:27:12;;;;;;;4.50;1.00;;;8.70;67.80;;;;;;4954859;28;94695;-74
2023/02/01 11:29:43;;;;;;;4.45;1.20;;;8.90;66.80;;;;;;4965161;28;93161;-75
2023/02/01 11:32:12;;;;;;;4.60;1.20;;;9.00;66.30;;;;;;4962126;28;92174;-71
2023/02/01 11:34:46;;;;;;;3.35;0.70;;;9.00;66.10;;;;;;4967356;28;93188;-72
2023/02/01 11:37:29;;;;;;;5.00;0.90;;;9.00;65.30;;;;;;4960406;28;91511;-72
2023/02/01 11:39:58;;;;;;;5.80;1.63;;;9.00;65.50;;;;;;4962397;28;92385;-72
2023/02/01 11:42:25;;;;;;;4.03;0.73;;;9.10;65.60;;;;;;4959046;28;94625;-72
2023/02/01 11:45:07;;;;;;;4.25;0.70;;;9.10;66.90;;;;;;4956888;28;93611;-72
2023/02/01 11:47:40;;;;;;;1.25;0.30;;;8.90;66.10;;;;;;4965971;28;94218;-72
2023/02/01 11:50:16;;;;;;;1.40;0.30;;;9.00;66.90;;;;;;4960902;28;93165;-72
2023/02/01 11:53:19;;;;;;;4.65;1.33;;;9.10;66.90;;;;;;4959239;28;94314;-74
2023/02/01 11:56:04;;;;;;;6.00;1.25;;;9.10;65.40;;;;;;4970853;28;93242;-72
2023/02/01 11:58:38;;;;;;;7.60;2.60;;;9.20;65.30;;;;;;4964183;28;93152;-71
2023/02/01 12:01:22;;;;;;;4.90;1.33;;;9.20;65.60;;;;;;4962036;28;94019;-72
2023/02/01 12:04:20;;;;;;;5.38;1.10;;;9.10;64.50;;;;;;4972540;28;91733;-73
2023/02/01 12:06:51;;;;;;;4.53;1.20;;;9.30;66.10;;;;;;4975782;28;94371;-72
2023/02/01 12:09:45;;;;;;;5.15;1.58;;;9.40;64.90;;;;;;4965661;28;92903;-72
2023/02/01 12:12:34;;;;;;;7.90;0.90;;;9.20;64.60;;;;;;4954958;28;93697;-72
2023/02/01 12:15:06;;;;;;;3.90;1.30;;;9.10;64.70;;;;;;4951265;28;92673;-72
2023/02/01 12:17:53;;;;;;;6.53;1.38;;;8.90;64.80;;;;;;4967844;28;92742;-72
2023/02/01 12:20:46;;;;;;;6.05;1.20;;;8.80;65.80;;;;;;4973808;28;92701;-71
2023/02/01 12:23:43;;;;;;;3.75;0.50;;;8.70;66.00;;;;;;4957364;28;92605;-71
2023/02/01 12:26:23;;;;;;;2.80;0.68;;;8.60;66.10;;;;;;4965831;28;93661;-70
2023/02/01 12:28:55;;;;;;;2.60;0.47;;;8.60;66.50;;;;;;4962668;28;94575;-70
2023/02/01 12:32:04;;;;;;;2.75;0.75;;;8.60;67.50;;;;;;4964020;28;92704;-71
2023/02/01 12:34:48;;;;;;;1.80;0.40;;;8.70;67.30;;;;;;4959944;28;94709;-71
2023/02/01 12:37:45;;;;;;;1.33;0.47;;;8.80;67.00;;;;;;4961707;28;93165;-69
2023/02/01 12:40:53;;;;;;;2.33;0.57;;;8.80;67.00;;;;;;4968350;28;94102;-71
2023/02/01 12:43:36;;;;;;;1.90;0.52;;;8.90;66.40;;;;;;4971625;28;93848;-70
2023/02/01 12:46:07;;;;;;;1.52;0.30;;;9.00;66.50;;;;;;4962019;28;92539;-71
2023/02/01 12:48:54;;;;;;;2.83;0.10;;;8.90;66.10;;;;;;4972286;28;92140;-71
2023/02/01 12:51:24;;;;;;;2.00;0.30;;;8.80;66.30;;;;;;4965372;28;92680;-71
2023/02/01 12:54:16;;;;;;;1.58;0.32;;;8.70;66.80;;;;;;4965601;28;92802;-72
2023/02/01 12:56:47;;;;;;;1.20;0.20;;;8.70;67.10;;;;;;4964190;28;92607;-72
2023/02/01 12:59:40;;;;;;;3.47;0.20;;;8.70;66.90;;;;;;4968925;28;92340;-70
2023/02/01 13:02:19;;;;;;;1.10;0.20;;;8.60;66.50;;;;;;4961518;28;92764;-70
2023/02/01 13:04:53;;;;;;;2.80;0.10;;;8.80;66.70;;;;;;4963930;28;92423;-72
2023/02/01 13:07:25;;;;;;;2.45;0.20;;;8.90;66.50;;;;;;4971055;28;93380;-71
2023/02/01 13:09:57;;;;;;;2.75;0.30;;;9.00;66.10;;;;;;4974167;28;92721;-70
2023/02/01 13:12:30;;;;;;;5.50;0.25;;;8.90;65.70;;;;;;4968671;28;92703;-70
2023/02/01 13:15:21;;;;;;;1.33;0.20;;;8.90;65.80;;;;;;4970152;28;92782;-73
2023/02/01 13:17:49;;;;;;;3.67;0.28;;;8.90;65.90;;;;;;4969534;28;93010;-71
2023/02/01 13:20:33;;;;;;;1.00;0.20;;;8.90;66.00;;;;;;4969594;28;92180;-71
2023/02/01 13:23:09;;;;;;;1.02;0.30;;;8.80;67.20;;;;;;4968440;28;93702;-71
2023/02/01 13:25:43;;;;;;;3.33;0.45;;;8.80;67.50;;;;;;4972505;28;92930;-72
2023/02/01 13:28:20;;;;;;;1.60;0.30;;;8.90;66.40;;;;;;4967850;28;94425;-72
2023/02/01 13:31:15;;;;;;;1.58;0.30;;;9.00;66.60;;;;;;4975288;28;92610;-73
2023/02/01 13:33:58;;;;;;;2.83;0.38;;;9.00;71.90;;;;;;4966431;28;94556;-73
2023/02/01 13:36:57;;;;;;;3.55;0.52;;;9.20;69.30;;;;;;4973663;28;93831;-71
2023/02/01 13:39:26;;;;;;;1.65;0.30;;;9.30;66.90;;;;;;4962335;28;92432;-73
2023/02/01 13:41:56;;;;;;;2.65;0.30;;;9.30;65.70;;;;;;4970018;28;92867;-67
2023/02/01 13:44:38;;;;;;;3.00;0.40;;;9.20;67.80;;;;;;4968841;28;93557;-73
2023/02/01 13:47:26;;;;;;;2.35;0.80;;;9.30;65.30;;;;;;4971515;28;92436;-73
2023/02/01 13:49:55;;;;;;;2.10;0.40;;;9.40;65.30;;;;;;4968782;28;92320;-72
2023/02/01 13:52:31;;;;;;;2.30;0.32;;;9.50;64.70;;;;;;4965561;28;91907;-71